sensor_id;sensor_type;location;lat;lon;timestamp;pressure;altitude;pressure_sealevel;temperature;humidity
82293;BME280;71892;14.836;105.234;2023-09-19T00:00:42;99536.19;;;25.01;nan
82293;BME280;71892;14.836;105.234;2023-09-19T00:03:10;99530.75;;;25.01;nan
82293;BME280;71892;14.836;105.234;2023-09-19T00:05:38;99529.41;;;25.10;nan
82293;BME280;71892;14.836;105.234;2023-09-19T00:08:05;99525.44;;;25.17;nan
82293;BME280;71892;14.836;105.234;2023-09-19T00:13:04;99537.63;;;25.27;nan
82293;BME280;71892;14.836;105.234;2023-09-19T00:15:38;99548.09;;;25.36;nan
82293;BME280;71892;14.836;105.234;2023-09-19T00:18:06;99538.88;;;25.39;nan
82293;BME280;71892;14.836;105.234;2023-09-19T00:20:38;99549.94;;;25.53;nan
82293;BME280;71892;14.836;105.234;2023-09-19T00:23:05;99552.19;;;25.64;nan
82293;BME280;71892;14.836;105.234;2023-09-19T00:25:31;99559.81;;;25.74;nan
82293;BME280;71892;14.836;105.234;2023-09-19T00:27:58;99552.78;;;25.87;nan
82293;BME280;71892;14.836;105.234;2023-09-19T00:30:24;99559.50;;;26.15;nan
82293;BME280;71892;14.836;105.234;2023-09-19T00:32:51;99538.84;;;26.45;nan
82293;BME280;71892;14.836;105.234;2023-09-19T00:35:24;99564.88;;;26.68;nan
82293;BME280;71892;14.836;105.234;2023-09-19T00:37:51;99578.44;;;27.02;nan
82293;BME280;71892;14.836;105.234;2023-09-19T00:40:17;99499.25;;;27.19;nan
82293;BME280;71892;14.836;105.234;2023-09-19T00:42:48;99576.66;;;27.65;nan
82293;BME280;71892;14.836;105.234;2023-09-19T00:45:16;99576.28;;;28.33;nan
82293;BME280;71892;14.836;105.234;2023-09-19T00:47:48;99570.25;;;28.72;nan
82293;BME280;71892;14.836;105.234;2023-09-19T00:50:17;99574.16;;;28.96;nan
82293;BME280;71892;14.836;105.234;2023-09-19T00:52:46;99574.97;;;29.12;nan
82293;BME280;71892;14.836;105.234;2023-09-19T00:55:16;99579.53;;;29.54;nan
82293;BME280;71892;14.836;105.234;2023-09-19T00:57:45;99578.44;;;29.98;nan
82293;BME280;71892;14.836;105.234;2023-09-19T01:00:13;99568.97;;;30.16;nan
82293;BME280;71892;14.836;105.234;2023-09-19T01:02:45;99582.38;;;30.33;nan
82293;BME280;71892;14.836;105.234;2023-09-19T01:05:12;99569.66;;;30.32;nan
82293;BME280;71892;14.836;105.234;2023-09-19T01:07:38;99591.22;;;30.51;nan
82293;BME280;71892;14.836;105.234;2023-09-19T01:10:14;99597.41;;;30.67;nan
82293;BME280;71892;14.836;105.234;2023-09-19T01:29:16;99598.41;;;32.39;nan
82293;BME280;71892;14.836;105.234;2023-09-19T01:31:45;99598.78;;;31.74;nan
82293;BME280;71892;14.836;105.234;2023-09-19T01:34:13;99612.06;;;31.80;nan
82293;BME280;71892;14.836;105.234;2023-09-19T01:36:39;99618.38;;;31.69;nan
82293;BME280;71892;14.836;105.234;2023-09-19T01:39:11;99621.16;;;30.93;nan
82293;BME280;71892;14.836;105.234;2023-09-19T01:42:25;99617.84;;;31.01;nan
82293;BME280;71892;14.836;105.234;2023-09-19T01:47:53;99629.16;;;30.96;nan
82293;BME280;71892;14.836;105.234;2023-09-19T01:50:42;99602.28;;;32.12;nan
82293;BME280;71892;14.836;105.234;2023-09-19T01:53:26;99622.47;;;31.51;nan
82293;BME280;71892;14.836;105.234;2023-09-19T01:55:57;99618.81;;;31.50;nan
82293;BME280;71892;14.836;105.234;2023-09-19T01:58:46;99631.25;;;31.43;nan
82293;BME280;71892;14.836;105.234;2023-09-19T02:01:19;99627.28;;;31.97;nan
82293;BME280;71892;14.836;105.234;2023-09-19T02:03:47;99626.84;;;32.50;nan
82293;BME280;71892;14.836;105.234;2023-09-19T02:06:18;99631.34;;;32.51;nan
82293;BME280;71892;14.836;105.234;2023-09-19T02:08:47;99631.84;;;32.80;nan
82293;BME280;71892;14.836;105.234;2023-09-19T02:11:15;99629.47;;;32.52;nan
82293;BME280;71892;14.836;105.234;2023-09-19T02:13:41;99635.50;;;31.85;nan
82293;BME280;71892;14.836;105.234;2023-09-19T02:16:09;99637.50;;;31.71;nan
82293;BME280;71892;14.836;105.234;2023-09-19T02:18:36;99632.75;;;31.85;nan
82293;BME280;71892;14.836;105.234;2023-09-19T02:21:03;99631.69;;;31.99;nan
82293;BME280;71892;14.836;105.234;2023-09-19T02:23:30;99634.34;;;32.24;nan
82293;BME280;71892;14.836;105.234;2023-09-19T02:25:57;99643.13;;;31.69;nan
82293;BME280;71892;14.836;105.234;2023-09-19T02:28:30;99640.63;;;31.16;nan
82293;BME280;71892;14.836;105.234;2023-09-19T02:30:58;99557.53;;;30.49;nan
82293;BME280;71892;14.836;105.234;2023-09-19T02:33:25;99549.81;;;30.02;nan
82293;BME280;71892;14.836;105.234;2023-09-19T02:35:55;99629.09;;;30.19;nan
82293;BME280;71892;14.836;105.234;2023-09-19T02:38:25;99626.81;;;30.26;nan
82293;BME280;71892;14.836;105.234;2023-09-19T02:40:52;99629.81;;;30.08;nan
82293;BME280;71892;14.836;105.234;2023-09-19T02:43:21;99629.00;;;30.20;nan
82293;BME280;71892;14.836;105.234;2023-09-19T02:45:48;99619.88;;;30.20;nan
82293;BME280;71892;14.836;105.234;2023-09-19T02:48:22;99625.75;;;30.41;nan
82293;BME280;71892;14.836;105.234;2023-09-19T02:50:51;99624.56;;;30.45;nan
82293;BME280;71892;14.836;105.234;2023-09-19T02:53:18;99624.41;;;30.60;nan
82293;BME280;71892;14.836;105.234;2023-09-19T02:55:44;99629.03;;;30.85;nan
82293;BME280;71892;14.836;105.234;2023-09-19T02:58:12;99631.28;;;31.18;nan
82293;BME280;71892;14.836;105.234;2023-09-19T03:00:40;99644.44;;;31.38;nan
82293;BME280;71892;14.836;105.234;2023-09-19T03:03:08;99638.41;;;31.33;nan
82293;BME280;71892;14.836;105.234;2023-09-19T03:05:35;99619.63;;;31.27;nan
82293;BME280;71892;14.836;105.234;2023-09-19T03:08:01;99641.63;;;31.27;nan
82293;BME280;71892;14.836;105.234;2023-09-19T03:10:28;99618.28;;;31.71;nan
82293;BME280;71892;14.836;105.234;2023-09-19T03:12:56;99636.59;;;32.19;nan
82293;BME280;71892;14.836;105.234;2023-09-19T03:15:23;99632.31;;;32.15;nan
82293;BME280;71892;14.836;105.234;2023-09-19T03:17:49;99624.06;;;31.66;nan
82293;BME280;71892;14.836;105.234;2023-09-19T03:20:17;99633.66;;;31.48;nan
82293;BME280;71892;14.836;105.234;2023-09-19T03:22:45;99639.72;;;31.40;nan
82293;BME280;71892;14.836;105.234;2023-09-19T03:25:11;99624.50;;;31.73;nan
82293;BME280;71892;14.836;105.234;2023-09-19T03:27:39;99630.34;;;31.68;nan
82293;BME280;71892;14.836;105.234;2023-09-19T03:30:06;99628.09;;;31.86;nan
82293;BME280;71892;14.836;105.234;2023-09-19T03:32:44;99619.97;;;31.84;nan
82293;BME280;71892;14.836;105.234;2023-09-19T03:35:12;99621.31;;;31.66;nan
82293;BME280;71892;14.836;105.234;2023-09-19T03:37:41;99615.75;;;31.91;nan
82293;BME280;71892;14.836;105.234;2023-09-19T03:40:09;99606.78;;;31.77;nan
82293;BME280;71892;14.836;105.234;2023-09-19T03:42:42;99604.84;;;31.54;nan
82293;BME280;71892;14.836;105.234;2023-09-19T03:45:09;99563.72;;;31.52;nan
82293;BME280;71892;14.836;105.234;2023-09-19T03:47:39;99593.50;;;31.22;nan
82293;BME280;71892;14.836;105.234;2023-09-19T03:50:06;99590.50;;;31.25;nan
82293;BME280;71892;14.836;105.234;2023-09-19T03:52:34;99587.16;;;31.70;nan
82293;BME280;71892;14.836;105.234;2023-09-19T03:55:00;99584.50;;;31.69;nan
82293;BME280;71892;14.836;105.234;2023-09-19T03:57:28;99571.84;;;31.66;nan
82293;BME280;71892;14.836;105.234;2023-09-19T03:59:54;99567.13;;;31.68;nan
82293;BME280;71892;14.836;105.234;2023-09-19T04:02:21;99567.13;;;31.68;nan
82293;BME280;71892;14.836;105.234;2023-09-19T04:04:49;99544.31;;;31.79;nan
82293;BME280;71892;14.836;105.234;2023-09-19T04:07:15;99554.78;;;31.74;nan
82293;BME280;71892;14.836;105.234;2023-09-19T04:09:42;99557.28;;;31.40;nan
82293;BME280;71892;14.836;105.234;2023-09-19T04:12:08;99552.53;;;31.42;nan
82293;BME280;71892;14.836;105.234;2023-09-19T04:14:34;99543.66;;;31.39;nan
82293;BME280;71892;14.836;105.234;2023-09-19T04:17:01;99550.13;;;31.50;nan
82293;BME280;71892;14.836;105.234;2023-09-19T04:19:27;99546.25;;;31.66;nan
82293;BME280;71892;14.836;105.234;2023-09-19T04:21:53;99537.16;;;31.40;nan
82293;BME280;71892;14.836;105.234;2023-09-19T04:24:19;99540.03;;;31.38;nan
82293;BME280;71892;14.836;105.234;2023-09-19T04:26:46;99530.50;;;31.19;nan
82293;BME280;71892;14.836;105.234;2023-09-19T04:29:12;99529.44;;;31.58;nan
82293;BME280;71892;14.836;105.234;2023-09-19T04:31:40;99536.78;;;32.17;nan
82293;BME280;71892;14.836;105.234;2023-09-19T04:34:09;99533.19;;;32.74;nan
82293;BME280;71892;14.836;105.234;2023-09-19T04:36:36;99524.06;;;32.85;nan
82293;BME280;71892;14.836;105.234;2023-09-19T04:39:05;99525.44;;;33.46;nan
82293;BME280;71892;14.836;105.234;2023-09-19T04:41:33;99524.78;;;33.65;nan
82293;BME280;71892;14.836;105.234;2023-09-19T04:44:00;99518.31;;;32.99;nan
82293;BME280;71892;14.836;105.234;2023-09-19T04:46:26;99515.50;;;33.66;nan
82293;BME280;71892;14.836;105.234;2023-09-19T04:48:52;99518.38;;;34.39;nan
82293;BME280;71892;14.836;105.234;2023-09-19T04:51:19;99509.78;;;34.32;nan
82293;BME280;71892;14.836;105.234;2023-09-19T04:53:46;99505.47;;;34.08;nan
82293;BME280;71892;14.836;105.234;2023-09-19T04:56:13;99494.81;;;33.71;nan
82293;BME280;71892;14.836;105.234;2023-09-19T04:58:40;99496.41;;;32.86;nan
82293;BME280;71892;14.836;105.234;2023-09-19T05:01:07;99489.63;;;33.12;nan
82293;BME280;71892;14.836;105.234;2023-09-19T05:03:37;99497.16;;;33.10;nan
82293;BME280;71892;14.836;105.234;2023-09-19T05:06:04;99478.63;;;33.01;nan
82293;BME280;71892;14.836;105.234;2023-09-19T05:08:31;99478.50;;;32.81;nan
82293;BME280;71892;14.836;105.234;2023-09-19T05:10:57;99471.44;;;33.43;nan
82293;BME280;71892;14.836;105.234;2023-09-19T05:13:23;99460.41;;;33.86;nan
82293;BME280;71892;14.836;105.234;2023-09-19T05:15:50;99464.41;;;33.93;nan
82293;BME280;71892;14.836;105.234;2023-09-19T05:18:16;99460.22;;;33.78;nan
82293;BME280;71892;14.836;105.234;2023-09-19T05:20:43;99461.84;;;33.70;nan
82293;BME280;71892;14.836;105.234;2023-09-19T05:23:09;99457.78;;;33.42;nan
82293;BME280;71892;14.836;105.234;2023-09-19T05:25:40;99452.44;;;32.85;nan
82293;BME280;71892;14.836;105.234;2023-09-19T05:28:08;99457.94;;;32.62;nan
82293;BME280;71892;14.836;105.234;2023-09-19T05:30:35;99451.22;;;32.66;nan
82293;BME280;71892;14.836;105.234;2023-09-19T05:33:02;99444.84;;;32.77;nan
82293;BME280;71892;14.836;105.234;2023-09-19T05:35:30;99434.78;;;32.98;nan
82293;BME280;71892;14.836;105.234;2023-09-19T05:37:57;99423.28;;;32.71;nan
82293;BME280;71892;14.836;105.234;2023-09-19T05:40:24;99422.84;;;32.31;nan
82293;BME280;71892;14.836;105.234;2023-09-19T05:42:51;99418.34;;;31.84;nan
82293;BME280;71892;14.836;105.234;2023-09-19T05:45:17;99415.13;;;31.90;nan
82293;BME280;71892;14.836;105.234;2023-09-19T05:47:51;99409.38;;;31.58;nan
82293;BME280;71892;14.836;105.234;2023-09-19T05:50:22;99404.81;;;31.46;nan
82293;BME280;71892;14.836;105.234;2023-09-19T05:52:53;99406.06;;;31.53;nan
82293;BME280;71892;14.836;105.234;2023-09-19T05:55:20;99395.53;;;31.60;nan
82293;BME280;71892;14.836;105.234;2023-09-19T05:57:53;99396.56;;;31.70;nan
82293;BME280;71892;14.836;105.234;2023-09-19T06:00:20;99367.25;;;31.58;nan
82293;BME280;71892;14.836;105.234;2023-09-19T06:02:54;99395.44;;;31.48;nan
82293;BME280;71892;14.836;105.234;2023-09-19T06:05:21;99385.25;;;31.62;nan
82293;BME280;71892;14.836;105.234;2023-09-19T06:07:48;99362.09;;;31.88;nan
82293;BME280;71892;14.836;105.234;2023-09-19T06:10:14;99380.09;;;32.27;nan
82293;BME280;71892;14.836;105.234;2023-09-19T06:12:42;99353.19;;;32.53;nan
82293;BME280;71892;14.836;105.234;2023-09-19T06:15:15;99354.31;;;32.50;nan
82293;BME280;71892;14.836;105.234;2023-09-19T06:17:51;99371.81;;;33.16;nan
82293;BME280;71892;14.836;105.234;2023-09-19T06:20:21;99371.00;;;33.68;nan
82293;BME280;71892;14.836;105.234;2023-09-19T06:22:49;99359.75;;;33.81;nan
82293;BME280;71892;14.836;105.234;2023-09-19T06:25:16;99361.56;;;33.71;nan
82293;BME280;71892;14.836;105.234;2023-09-19T06:27:47;99350.91;;;33.66;nan
82293;BME280;71892;14.836;105.234;2023-09-19T06:30:13;99355.53;;;33.77;nan
82293;BME280;71892;14.836;105.234;2023-09-19T06:32:43;99338.91;;;33.35;nan
82293;BME280;71892;14.836;105.234;2023-09-19T06:35:14;99333.44;;;33.24;nan
82293;BME280;71892;14.836;105.234;2023-09-19T06:37:42;99323.94;;;33.70;nan
82293;BME280;71892;14.836;105.234;2023-09-19T06:40:13;99340.44;;;33.81;nan
82293;BME280;71892;14.836;105.234;2023-09-19T06:42:49;99330.66;;;34.18;nan
82293;BME280;71892;14.836;105.234;2023-09-19T06:45:16;99331.69;;;33.76;nan
82293;BME280;71892;14.836;105.234;2023-09-19T06:47:45;99326.41;;;32.77;nan
82293;BME280;71892;14.836;105.234;2023-09-19T06:50:15;99325.53;;;32.76;nan
82293;BME280;71892;14.836;105.234;2023-09-19T06:52:44;99318.28;;;33.18;nan
82293;BME280;71892;14.836;105.234;2023-09-19T06:55:12;99236.69;;;33.89;nan
82293;BME280;71892;14.836;105.234;2023-09-19T06:57:39;99309.53;;;34.08;nan
82293;BME280;71892;14.836;105.234;2023-09-19T07:00:13;99304.25;;;34.56;nan
82293;BME280;71892;14.836;105.234;2023-09-19T07:03:05;99299.84;;;34.83;nan
82293;BME280;71892;14.836;105.234;2023-09-19T07:05:34;99294.75;;;34.79;nan
82293;BME280;71892;14.836;105.234;2023-09-19T07:08:06;99268.44;;;34.14;nan
82293;BME280;71892;14.836;105.234;2023-09-19T07:10:33;99285.66;;;33.97;nan
82293;BME280;71892;14.836;105.234;2023-09-19T07:13:04;99280.28;;;33.95;nan
82293;BME280;71892;14.836;105.234;2023-09-19T07:15:34;99280.88;;;33.99;nan
82293;BME280;71892;14.836;105.234;2023-09-19T07:18:06;99276.50;;;33.96;nan
82293;BME280;71892;14.836;105.234;2023-09-19T07:20:35;99276.69;;;34.04;nan
82293;BME280;71892;14.836;105.234;2023-09-19T07:23:01;99285.25;;;33.60;nan
82293;BME280;71892;14.836;105.234;2023-09-19T07:25:28;99284.09;;;33.10;nan
82293;BME280;71892;14.836;105.234;2023-09-19T07:27:58;99284.41;;;32.96;nan
82293;BME280;71892;14.836;105.234;2023-09-19T07:30:26;99283.50;;;33.06;nan
82293;BME280;71892;14.836;105.234;2023-09-19T07:32:53;99281.03;;;33.35;nan
82293;BME280;71892;14.836;105.234;2023-09-19T07:35:19;99284.84;;;33.44;nan
82293;BME280;71892;14.836;105.234;2023-09-19T07:37:49;99270.47;;;33.40;nan
82293;BME280;71892;14.836;105.234;2023-09-19T07:40:17;99263.19;;;33.18;nan
82293;BME280;71892;14.836;105.234;2023-09-19T07:42:44;99242.84;;;33.31;nan
82293;BME280;71892;14.836;105.234;2023-09-19T07:45:12;99265.22;;;33.05;nan
82293;BME280;71892;14.836;105.234;2023-09-19T07:47:49;99260.63;;;32.95;nan
82293;BME280;71892;14.836;105.234;2023-09-19T07:50:17;99253.28;;;32.73;nan
82293;BME280;71892;14.836;105.234;2023-09-19T07:52:47;99249.09;;;32.35;nan
82293;BME280;71892;14.836;105.234;2023-09-19T07:55:14;99246.22;;;32.48;nan
82293;BME280;71892;14.836;105.234;2023-09-19T07:57:43;99241.34;;;32.29;nan
82293;BME280;71892;14.836;105.234;2023-09-19T08:00:10;99245.25;;;32.38;nan
82293;BME280;71892;14.836;105.234;2023-09-19T08:02:37;99230.84;;;32.34;nan
82293;BME280;71892;14.836;105.234;2023-09-19T08:05:04;99232.56;;;32.47;nan
82293;BME280;71892;14.836;105.234;2023-09-19T08:07:41;99232.47;;;32.48;nan
82293;BME280;71892;14.836;105.234;2023-09-19T08:10:08;99228.53;;;32.62;nan
82293;BME280;71892;14.836;105.234;2023-09-19T08:12:46;99231.75;;;32.78;nan
82293;BME280;71892;14.836;105.234;2023-09-19T08:15:14;99225.16;;;32.69;nan
82293;BME280;71892;14.836;105.234;2023-09-19T08:17:41;99213.91;;;32.93;nan
82293;BME280;71892;14.836;105.234;2023-09-19T08:20:08;99212.72;;;32.86;nan
82293;BME280;71892;14.836;105.234;2023-09-19T08:22:43;99203.25;;;33.00;nan
82293;BME280;71892;14.836;105.234;2023-09-19T08:25:12;99214.75;;;33.16;nan
82293;BME280;71892;14.836;105.234;2023-09-19T08:27:38;99217.97;;;33.10;nan
82293;BME280;71892;14.836;105.234;2023-09-19T08:30:05;99214.63;;;33.06;nan
82293;BME280;71892;14.836;105.234;2023-09-19T08:32:32;99210.59;;;33.10;nan
82293;BME280;71892;14.836;105.234;2023-09-19T08:34:58;99205.00;;;33.01;nan
82293;BME280;71892;14.836;105.234;2023-09-19T08:37:25;99211.91;;;32.95;nan
82293;BME280;71892;14.836;105.234;2023-09-19T08:39:51;99210.28;;;32.72;nan
82293;BME280;71892;14.836;105.234;2023-09-19T08:42:17;99209.50;;;32.59;nan
82293;BME280;71892;14.836;105.234;2023-09-19T08:44:46;99207.09;;;32.33;nan
82293;BME280;71892;14.836;105.234;2023-09-19T08:47:16;99204.63;;;32.19;nan
82293;BME280;71892;14.836;105.234;2023-09-19T08:50:42;99205.34;;;32.21;nan
82293;BME280;71892;14.836;105.234;2023-09-19T08:52:44;99198.56;;;32.37;nan
82293;BME280;71892;14.836;105.234;2023-09-19T08:55:14;99197.41;;;32.39;nan
82293;BME280;71892;14.836;105.234;2023-09-19T08:57:49;99187.66;;;32.46;nan
82293;BME280;71892;14.836;105.234;2023-09-19T09:00:16;99183.53;;;32.52;nan
82293;BME280;71892;14.836;105.234;2023-09-19T09:02:47;99182.53;;;32.42;nan
82293;BME280;71892;14.836;105.234;2023-09-19T09:05:16;99169.56;;;32.32;nan
82293;BME280;71892;14.836;105.234;2023-09-19T09:07:49;99194.06;;;32.35;nan
82293;BME280;71892;14.836;105.234;2023-09-19T09:10:20;99186.69;;;32.36;nan
82293;BME280;71892;14.836;105.234;2023-09-19T09:12:53;99175.00;;;32.44;nan
82293;BME280;71892;14.836;105.234;2023-09-19T09:15:23;99171.22;;;32.24;nan
82293;BME280;71892;14.836;105.234;2023-09-19T09:17:51;99173.59;;;32.28;nan
82293;BME280;71892;14.836;105.234;2023-09-19T09:20:19;99165.56;;;32.25;nan
82293;BME280;71892;14.836;105.234;2023-09-19T09:22:56;99171.56;;;32.30;nan
82293;BME280;71892;14.836;105.234;2023-09-19T09:25:55;99182.34;;;32.22;nan
82293;BME280;71892;14.836;105.234;2023-09-19T09:28:26;99158.38;;;32.13;nan
82293;BME280;71892;14.836;105.234;2023-09-19T09:30:54;99170.88;;;31.95;nan
82293;BME280;71892;14.836;105.234;2023-09-19T09:33:21;99161.19;;;32.01;nan
82293;BME280;71892;14.836;105.234;2023-09-19T09:38:24;99158.09;;;31.94;nan
82293;BME280;71892;14.836;105.234;2023-09-19T09:41:00;99172.13;;;31.80;nan
82293;BME280;71892;14.836;105.234;2023-09-19T09:43:39;99162.50;;;31.85;nan
82293;BME280;71892;14.836;105.234;2023-09-19T09:46:08;99161.25;;;31.89;nan
82293;BME280;71892;14.836;105.234;2023-09-19T09:51:43;99132.09;;;31.98;nan
82293;BME280;71892;14.836;105.234;2023-09-19T09:54:24;99048.34;;;31.91;nan
82293;BME280;71892;14.836;105.234;2023-09-19T09:59:21;99156.50;;;31.80;nan
82293;BME280;71892;14.836;105.234;2023-09-19T10:01:50;99168.13;;;31.73;nan
82293;BME280;71892;14.836;105.234;2023-09-19T10:04:29;99172.00;;;31.70;nan
82293;BME280;71892;14.836;105.234;2023-09-19T10:07:02;99165.84;;;31.67;nan
82293;BME280;71892;14.836;105.234;2023-09-19T10:09:45;99176.59;;;31.59;nan
82293;BME280;71892;14.836;105.234;2023-09-19T10:12:15;99176.84;;;31.56;nan
82293;BME280;71892;14.836;105.234;2023-09-19T10:14:43;99166.06;;;31.52;nan
82293;BME280;71892;14.836;105.234;2023-09-19T10:17:13;99193.81;;;31.49;nan
82293;BME280;71892;14.836;105.234;2023-09-19T10:19:56;99181.03;;;31.37;nan
82293;BME280;71892;14.836;105.234;2023-09-19T10:22:24;99199.03;;;31.30;nan
82293;BME280;71892;14.836;105.234;2023-09-19T10:24:53;99199.72;;;31.10;nan
82293;BME280;71892;14.836;105.234;2023-09-19T10:27:20;99203.78;;;30.93;nan
82293;BME280;71892;14.836;105.234;2023-09-19T10:29:51;99214.44;;;30.74;nan
82293;BME280;71892;14.836;105.234;2023-09-19T10:32:22;99198.00;;;30.61;nan
82293;BME280;71892;14.836;105.234;2023-09-19T10:34:49;99213.31;;;30.53;nan
82293;BME280;71892;14.836;105.234;2023-09-19T10:37:16;99219.47;;;30.44;nan
82293;BME280;71892;14.836;105.234;2023-09-19T10:39:46;99221.25;;;30.32;nan
82293;BME280;71892;14.836;105.234;2023-09-19T10:42:18;99224.59;;;30.25;nan
82293;BME280;71892;14.836;105.234;2023-09-19T10:44:47;99221.31;;;30.19;nan
82293;BME280;71892;14.836;105.234;2023-09-19T10:47:15;99229.53;;;30.07;nan
82293;BME280;71892;14.836;105.234;2023-09-19T10:49:45;99235.06;;;29.94;nan
82293;BME280;71892;14.836;105.234;2023-09-19T10:52:19;99247.66;;;29.84;nan
82293;BME280;71892;14.836;105.234;2023-09-19T10:54:51;99255.03;;;29.71;nan
82293;BME280;71892;14.836;105.234;2023-09-19T10:57:24;99251.09;;;29.62;nan
82293;BME280;71892;14.836;105.234;2023-09-19T11:00:05;99261.34;;;29.59;nan
82293;BME280;71892;14.836;105.234;2023-09-19T11:03:25;99260.38;;;29.47;nan
82293;BME280;71892;14.836;105.234;2023-09-19T11:06:18;99255.25;;;29.43;nan
82293;BME280;71892;14.836;105.234;2023-09-19T11:09:03;99265.31;;;29.42;nan
82293;BME280;71892;14.836;105.234;2023-09-19T11:11:49;99261.03;;;29.38;nan
82293;BME280;71892;14.836;105.234;2023-09-19T11:30:48;99296.56;;;28.86;nan
82293;BME280;71892;14.836;105.234;2023-09-19T11:33:25;99291.22;;;28.84;nan
82293;BME280;71892;14.836;105.234;2023-09-19T11:46:53;99323.56;;;28.37;nan
82293;BME280;71892;14.836;105.234;2023-09-19T11:49:30;99324.81;;;28.31;nan
82293;BME280;71892;14.836;105.234;2023-09-19T11:51:59;99321.31;;;28.29;nan
82293;BME280;71892;14.836;105.234;2023-09-19T11:54:35;99315.75;;;28.17;nan
82293;BME280;71892;14.836;105.234;2023-09-19T11:57:05;99308.00;;;28.09;nan
82293;BME280;71892;14.836;105.234;2023-09-19T11:59:34;99314.66;;;28.05;nan
82293;BME280;71892;14.836;105.234;2023-09-19T12:02:06;99311.25;;;28.01;nan
82293;BME280;71892;14.836;105.234;2023-09-19T12:04:40;99318.25;;;28.05;nan
82293;BME280;71892;14.836;105.234;2023-09-19T12:07:12;99309.59;;;28.13;nan
82293;BME280;71892;14.836;105.234;2023-09-19T12:09:51;99328.44;;;28.18;nan
82293;BME280;71892;14.836;105.234;2023-09-19T12:12:28;99335.25;;;28.10;nan
82293;BME280;71892;14.836;105.234;2023-09-19T12:14:58;99334.56;;;28.07;nan
82293;BME280;71892;14.836;105.234;2023-09-19T12:17:38;99345.97;;;27.99;nan
82293;BME280;71892;14.836;105.234;2023-09-19T12:20:07;99345.97;;;27.99;nan
82293;BME280;71892;14.836;105.234;2023-09-19T12:22:44;99329.88;;;28.09;nan
82293;BME280;71892;14.836;105.234;2023-09-19T12:25:11;99334.31;;;28.12;nan
82293;BME280;71892;14.836;105.234;2023-09-19T12:27:45;99346.38;;;28.07;nan
82293;BME280;71892;14.836;105.234;2023-09-19T12:30:27;99333.03;;;28.03;nan
82293;BME280;71892;14.836;105.234;2023-09-19T12:32:59;99352.16;;;28.03;nan
82293;BME280;71892;14.836;105.234;2023-09-19T12:37:56;99344.22;;;27.98;nan
82293;BME280;71892;14.836;105.234;2023-09-19T12:40:23;99359.47;;;28.02;nan
82293;BME280;71892;14.836;105.234;2023-09-19T12:42:54;99361.78;;;28.08;nan
82293;BME280;71892;14.836;105.234;2023-09-19T12:45:30;99366.25;;;28.11;nan
82293;BME280;71892;14.836;105.234;2023-09-19T12:48:22;99369.72;;;28.13;nan
82293;BME280;71892;14.836;105.234;2023-09-19T12:51:07;99373.25;;;28.15;nan
82293;BME280;71892;14.836;105.234;2023-09-19T12:53:40;99371.41;;;28.16;nan
82293;BME280;71892;14.836;105.234;2023-09-19T12:56:08;99345.72;;;28.18;nan
82293;BME280;71892;14.836;105.234;2023-09-19T12:58:56;99366.81;;;28.16;nan
82293;BME280;71892;14.836;105.234;2023-09-19T13:01:25;99355.00;;;28.16;nan
82293;BME280;71892;14.836;105.234;2023-09-19T13:06:47;99364.09;;;28.16;nan
82293;BME280;71892;14.836;105.234;2023-09-19T13:09:16;99357.75;;;28.16;nan
82293;BME280;71892;14.836;105.234;2023-09-19T13:11:43;99361.66;;;28.12;nan
82293;BME280;71892;14.836;105.234;2023-09-19T13:14:23;99363.41;;;28.13;nan
82293;BME280;71892;14.836;105.234;2023-09-19T13:17:06;99309.75;;;28.10;nan
82293;BME280;71892;14.836;105.234;2023-09-19T13:19:47;99367.47;;;28.05;nan
82293;BME280;71892;14.836;105.234;2023-09-19T13:22:43;99370.28;;;28.04;nan
82293;BME280;71892;14.836;105.234;2023-09-19T13:25:18;99377.72;;;28.02;nan
82293;BME280;71892;14.836;105.234;2023-09-19T13:27:52;99375.16;;;27.99;nan
82293;BME280;71892;14.836;105.234;2023-09-19T13:30:22;99377.00;;;27.98;nan
82293;BME280;71892;14.836;105.234;2023-09-19T13:32:49;99372.53;;;27.97;nan
82293;BME280;71892;14.836;105.234;2023-09-19T13:35:16;99349.00;;;27.95;nan
82293;BME280;71892;14.836;105.234;2023-09-19T13:37:43;99367.38;;;27.93;nan
82293;BME280;71892;14.836;105.234;2023-09-19T13:40:13;99354.69;;;27.92;nan
82293;BME280;71892;14.836;105.234;2023-09-19T13:42:41;99362.97;;;27.90;nan
82293;BME280;71892;14.836;105.234;2023-09-19T13:45:08;99375.94;;;27.87;nan
82293;BME280;71892;14.836;105.234;2023-09-19T13:47:39;99380.72;;;27.83;nan
82293;BME280;71892;14.836;105.234;2023-09-19T13:50:06;99385.41;;;27.81;nan
82293;BME280;71892;14.836;105.234;2023-09-19T13:52:33;99333.56;;;27.80;nan
82293;BME280;71892;14.836;105.234;2023-09-19T13:55:00;99392.03;;;27.77;nan
82293;BME280;71892;14.836;105.234;2023-09-19T13:57:26;99393.06;;;27.75;nan
82293;BME280;71892;14.836;105.234;2023-09-19T13:59:53;99393.97;;;27.75;nan
82293;BME280;71892;14.836;105.234;2023-09-19T14:02:21;99400.50;;;27.73;nan
82293;BME280;71892;14.836;105.234;2023-09-19T14:04:51;99407.13;;;27.69;nan
82293;BME280;71892;14.836;105.234;2023-09-19T14:07:18;99404.50;;;27.67;nan
82293;BME280;71892;14.836;105.234;2023-09-19T14:09:46;99411.81;;;27.66;nan
82293;BME280;71892;14.836;105.234;2023-09-19T14:12:13;99409.94;;;27.67;nan
82293;BME280;71892;14.836;105.234;2023-09-19T14:14:40;99406.25;;;27.68;nan
82293;BME280;71892;14.836;105.234;2023-09-19T14:17:07;99417.06;;;27.70;nan
82293;BME280;71892;14.836;105.234;2023-09-19T14:19:34;99420.78;;;27.69;nan